• Join FlightAware (Why Join?)
  • Login
  • US Flag 
06:42AM EST


 

Airport Tracker/Info


-or-


 

Live Flight TrackerFlight Track Log ✈ N960DL ✈ 09-Jun-2013 ✈ KATL - KJAX

Flight Track Log - Related Links

Times and Time Zones

All times are in EDT time to prevent confusion due to time zone crossing. See the N960DL flight status page for this flight to view local times or setup timezone preferences in your user account.

Time Position Orientation Groundspeed Altitude Reporting Facility
EDT Latitude Longitude Course Direction KTS MPH feet Rate Location/Type
08:30AM 33.6333 -84.4667 140° Southeast 172 198 2,400  Level Atlanta TRACON
08:31AM 33.6333 -84.5500 270° West 255 293 4,600 2,700 Climbing Atlanta TRACON
08:32AM 33.3991 -84.2667 180° South  Level FlightAware Approximate
08:32AM 33.6333 -84.6333 270° West 276 318 7,800  Level Atlanta TRACON
08:33AM 33.3098 -84.1929 140° Southeast  Level FlightAware Approximate
08:34AM 33.2241 -84.1072 140° Southeast  Level FlightAware Approximate
08:34AM 33.4689 -84.6911 196° South 261 300 10,000  Level Atlanta Center
08:35AM 33.1384 -84.0217 140° Southeast  Level FlightAware Approximate
08:35AM 33.3711 -84.6581 164° South 359 413 10,100  Level Atlanta Center
08:36AM 33.3278 -84.5386 113° Southeast 356 410 12,500 2,580 Climbing Atlanta Center
08:37AM 33.2739 -84.4214 119° Southeast 382 440 15,300 2,640 Climbing Atlanta Center
08:38AM 33.1928 -84.3244 135° Southeast 403 464 17,800 2,280 Climbing Atlanta Center
08:39AM 33.1075 -84.2297 137° Southeast 414 476 19,900 2,520 Climbing Atlanta Center
08:40AM 33.0303 -84.1453 137° Southeast 421 484 22,900 2,460 Climbing Atlanta Center
08:41AM 32.9508 -84.0536 136° Southeast 414 476 24,900 1,800 Climbing Atlanta Center
08:42AM 32.8653 -83.9572 137° Southeast 414 476 26,500 1,260 Climbing Atlanta Center
08:43AM 32.7797 -83.8633 137° Southeast 414 476 27,500 720 Climbing Atlanta Center
08:44AM 32.6878 -83.7600 137° Southeast 430 495 28,000 240 Climbing Atlanta Center
08:45AM 32.5892 -83.6494 137° Southeast 441 507 28,000  Level Atlanta Center
08:46AM 32.4950 -83.5464 137° Southeast 448 516 28,000  Level Atlanta Center
08:47AM 32.4025 -83.4436 137° Southeast 448 516 28,000  Level Atlanta Center
08:49AM 32.2806 -83.3078 137° Southeast 459 528 28,000 -240 Level Jacksonville Center
08:50AM 32.1786 -83.2019 139° Southeast 459 528 27,500 -660 Descending Jacksonville Center
08:51AM 32.0892 -83.1011 136° Southeast 449 517 26,700 -900 Descending Jacksonville Center
08:52AM 32.0017 -83.0078 138° Southeast 437 503 25,700 -1,680 Descending Jacksonville Center
08:53AM 31.9139 -82.9147 138° Southeast 432 497 23,400 -1,380 Descending Jacksonville Center
08:54AM 31.8303 -82.8242 137° Southeast 419 482 23,000 -240 Descending Jacksonville Center
08:55AM 31.7425 -82.7508 145° Southeast 405 466 23,000  Level Jacksonville Center
08:56AM 31.6464 -82.6850 150° Southeast 405 466 23,000  Level Jacksonville Center
08:57AM 31.5503 -82.6219 151° Southeast 400 460 23,000 -480 Level Jacksonville Center
08:58AM 31.4542 -82.5564 150° Southeast 400 460 22,100 -1,440 Descending Jacksonville Center
08:59AM 31.3600 -82.4911 149° Southeast 400 460 20,200 -2,100 Descending Jacksonville Center
09:00AM 31.2700 -82.4356 152° Southeast 385 443 17,900 -2,100 Descending Jacksonville Center
09:01AM 31.1842 -82.3753 149° Southeast 375 432 16,100 -1,980 Descending Jacksonville Center
09:01AM 31.1547 -82.3489 143° Southeast 351 404 15,100 -2,340 Descending Jacksonville Center
09:02AM 31.1003 -82.3153 152° Southeast 363 418 13,800 -1,980 Descending Jacksonville Center
09:03AM 31.0208 -82.2575 148° Southeast 353 406 12,000 -900 Descending Jacksonville Center
09:04AM 30.9431 -82.1950 145° Southeast 342 394 12,000 -120 Level Jacksonville Center
09:04AM 30.9264 -82.1781 139° Southeast 341 392 11,900 -1,020 Descending Jacksonville Center
09:05AM 30.8678 -82.1350 148° Southeast 337 388 11,000 -1,380 Descending Jacksonville Center
09:05AM 30.8550 -82.1206 136° Southeast 307 353 10,500 -1,800 Descending Jacksonville Center
09:06AM 30.8025 -82.0800 146° Southeast 315 362 9,200 -1,800 Descending Jacksonville Center
09:06AM 30.7836 -82.0631 142° Southeast 281 323 8,700 -1,620 Descending Jacksonville Center
09:07AM 30.7375 -82.0272 146° Southeast 295 339 7,600 -1,620 Descending Jacksonville Center
09:07AM 30.7186 -82.0131 147° Southeast 280 322 7,100 -1,500 Descending Jacksonville Center
09:08AM 30.6744 -81.9772 145° Southeast 281 323 6,100 -1,380 Descending Jacksonville Center
09:08AM 30.6556 -81.9603 142° Southeast 267 307 5,700 -1,680 Descending Jacksonville Center
09:09AM 30.6158 -81.9294 146° Southeast 270 311 4,400 -1,800 Descending Jacksonville Center
09:09AM 30.5883 -81.9128 152° Southeast 256 295 3,700 -1,380 Descending Jacksonville Center
09:10AM 30.5550 -81.8914 151° Southeast 258 297 3,100 -900 Descending Jacksonville Center
09:10AM 30.5339 -81.8747 146° Southeast 221 254 2,800 -840 Descending Jacksonville Center
09:11AM 30.5067 -81.8558 149° Southeast 234 269 2,300 -960 Descending Jacksonville Center